sensor_id;sensor_type;location;lat;lon;timestamp;pressure;altitude;pressure_sealevel;temperature;humidity
29825;BME280;16713;52.916;12.834;2023-12-28T00:00:38;100334.03;;;4.47;70.32
29825;BME280;16713;52.916;12.834;2023-12-28T00:03:05;100337.09;;;4.46;70.16
29825;BME280;16713;52.916;12.834;2023-12-28T00:05:32;100337.56;;;4.48;69.83
29825;BME280;16713;52.916;12.834;2023-12-28T00:07:58;100332.44;;;4.46;69.67
29825;BME280;16713;52.916;12.834;2023-12-28T00:10:27;100339.47;;;4.47;70.21
29825;BME280;16713;52.916;12.834;2023-12-28T00:12:54;100337.22;;;4.49;70.20
29825;BME280;16713;52.916;12.834;2023-12-28T00:15:22;100331.56;;;4.54;69.98
29825;BME280;16713;52.916;12.834;2023-12-28T00:17:49;100340.16;;;4.56;69.64
29825;BME280;16713;52.916;12.834;2023-12-28T00:20:15;100339.72;;;4.54;69.62
29825;BME280;16713;52.916;12.834;2023-12-28T00:22:41;100322.84;;;4.61;70.13
29825;BME280;16713;52.916;12.834;2023-12-28T00:25:08;100326.34;;;4.61;69.69
29825;BME280;16713;52.916;12.834;2023-12-28T00:27:34;100324.28;;;4.58;69.45
29825;BME280;16713;52.916;12.834;2023-12-28T00:30:05;100317.50;;;4.64;69.75
29825;BME280;16713;52.916;12.834;2023-12-28T00:32:32;100322.38;;;4.71;70.06
29825;BME280;16713;52.916;12.834;2023-12-28T00:34:58;100314.34;;;4.74;69.49
29825;BME280;16713;52.916;12.834;2023-12-28T00:37:25;100306.16;;;4.74;69.93
29825;BME280;16713;52.916;12.834;2023-12-28T00:39:51;100291.44;;;4.75;69.66
29825;BME280;16713;52.916;12.834;2023-12-28T00:42:18;100295.72;;;4.76;69.74
29825;BME280;16713;52.916;12.834;2023-12-28T00:44:45;100308.56;;;4.76;69.19
29825;BME280;16713;52.916;12.834;2023-12-28T00:47:12;100306.97;;;4.75;69.52
29825;BME280;16713;52.916;12.834;2023-12-28T00:49:38;100303.91;;;4.76;69.63
29825;BME280;16713;52.916;12.834;2023-12-28T00:52:05;100313.22;;;4.75;69.97
29825;BME280;16713;52.916;12.834;2023-12-28T00:54:31;100321.41;;;4.75;69.39
29825;BME280;16713;52.916;12.834;2023-12-28T00:56:58;100324.13;;;4.75;69.84
29825;BME280;16713;52.916;12.834;2023-12-28T00:59:24;100322.97;;;4.76;69.69
29825;BME280;16713;52.916;12.834;2023-12-28T01:01:51;100314.59;;;4.81;69.68
29825;BME280;16713;52.916;12.834;2023-12-28T01:04:17;100316.16;;;4.82;69.14
29825;BME280;16713;52.916;12.834;2023-12-28T01:06:45;100297.56;;;4.84;69.72
29825;BME280;16713;52.916;12.834;2023-12-28T01:09:11;100293.59;;;4.82;68.59
29825;BME280;16713;52.916;12.834;2023-12-28T01:11:37;100299.81;;;4.82;68.50
29825;BME280;16713;52.916;12.834;2023-12-28T01:14:04;100291.91;;;4.89;68.80
29825;BME280;16713;52.916;12.834;2023-12-28T01:16:30;100284.06;;;4.88;69.61
29825;BME280;16713;52.916;12.834;2023-12-28T01:18:57;100285.97;;;4.87;69.50
29825;BME280;16713;52.916;12.834;2023-12-28T01:21:23;100283.38;;;4.91;69.25
29825;BME280;16713;52.916;12.834;2023-12-28T01:23:51;100271.66;;;4.90;69.07
29825;BME280;16713;52.916;12.834;2023-12-28T01:26:17;100266.22;;;4.90;68.75
29825;BME280;16713;52.916;12.834;2023-12-28T01:28:44;100251.00;;;4.89;68.43
29825;BME280;16713;52.916;12.834;2023-12-28T01:31:10;100240.78;;;4.86;69.31
29825;BME280;16713;52.916;12.834;2023-12-28T01:33:37;100251.69;;;4.86;69.41
29825;BME280;16713;52.916;12.834;2023-12-28T01:36:33;100240.78;;;4.86;69.16
29825;BME280;16713;52.916;12.834;2023-12-28T01:39:00;100236.59;;;4.89;69.26
29825;BME280;16713;52.916;12.834;2023-12-28T01:41:27;100255.31;;;4.90;68.25
29825;BME280;16713;52.916;12.834;2023-12-28T01:43:53;100275.31;;;4.94;68.91
29825;BME280;16713;52.916;12.834;2023-12-28T01:46:21;100287.81;;;4.95;68.56
29825;BME280;16713;52.916;12.834;2023-12-28T01:48:49;100295.63;;;4.97;68.11
29825;BME280;16713;52.916;12.834;2023-12-28T01:51:16;100296.78;;;4.96;68.72
29825;BME280;16713;52.916;12.834;2023-12-28T01:53:45;100297.13;;;4.94;68.78
29825;BME280;16713;52.916;12.834;2023-12-28T01:56:12;100300.53;;;4.91;68.14
29825;BME280;16713;52.916;12.834;2023-12-28T01:58:40;100304.03;;;4.92;68.63
29825;BME280;16713;52.916;12.834;2023-12-28T02:01:10;100313.81;;;4.93;68.36
29825;BME280;16713;52.916;12.834;2023-12-28T02:03:38;100319.38;;;4.96;67.94
29825;BME280;16713;52.916;12.834;2023-12-28T02:06:07;100310.75;;;4.94;68.60
29825;BME280;16713;52.916;12.834;2023-12-28T02:08:34;100314.03;;;5.00;67.95
29825;BME280;16713;52.916;12.834;2023-12-28T02:11:00;100313.81;;;5.05;68.59
29825;BME280;16713;52.916;12.834;2023-12-28T02:13:27;100305.63;;;5.05;67.70
29825;BME280;16713;52.916;12.834;2023-12-28T02:18:48;100291.78;;;5.10;67.64
29825;BME280;16713;52.916;12.834;2023-12-28T02:21:17;100279.41;;;5.12;68.54
29825;BME280;16713;52.916;12.834;2023-12-28T02:23:48;100289.19;;;5.13;68.87
29825;BME280;16713;52.916;12.834;2023-12-28T02:26:18;100298.47;;;5.12;68.23
29825;BME280;16713;52.916;12.834;2023-12-28T02:28:45;100302.00;;;5.13;68.78
29825;BME280;16713;52.916;12.834;2023-12-28T02:31:21;100294.16;;;5.11;68.21
29825;BME280;16713;52.916;12.834;2023-12-28T02:34:01;100296.44;;;5.09;68.27
29825;BME280;16713;52.916;12.834;2023-12-28T02:36:29;100305.06;;;5.11;67.92
29825;BME280;16713;52.916;12.834;2023-12-28T02:38:58;100301.19;;;5.12;68.43
29825;BME280;16713;52.916;12.834;2023-12-28T02:41:26;100300.91;;;5.14;68.54
29825;BME280;16713;52.916;12.834;2023-12-28T02:43:52;100291.09;;;5.13;68.54
29825;BME280;16713;52.916;12.834;2023-12-28T02:46:19;100302.47;;;5.15;69.50
29825;BME280;16713;52.916;12.834;2023-12-28T02:48:45;100296.78;;;5.20;68.55
29825;BME280;16713;52.916;12.834;2023-12-28T02:51:12;100287.00;;;5.19;70.07
29825;BME280;16713;52.916;12.834;2023-12-28T02:53:39;100287.13;;;5.22;69.73
29825;BME280;16713;52.916;12.834;2023-12-28T02:56:05;100291.13;;;5.25;69.43
29825;BME280;16713;52.916;12.834;2023-12-28T02:58:33;100294.28;;;5.27;70.12
29825;BME280;16713;52.916;12.834;2023-12-28T03:00:59;100282.78;;;5.33;70.76
29825;BME280;16713;52.916;12.834;2023-12-28T03:03:26;100286.78;;;5.36;70.40
29825;BME280;16713;52.916;12.834;2023-12-28T03:05:53;100290.19;;;5.33;69.38
29825;BME280;16713;52.916;12.834;2023-12-28T03:08:19;100297.91;;;5.43;69.10
29825;BME280;16713;52.916;12.834;2023-12-28T03:10:46;100303.00;;;5.44;70.16
29825;BME280;16713;52.916;12.834;2023-12-28T03:13:12;100300.84;;;5.50;69.88
29825;BME280;16713;52.916;12.834;2023-12-28T03:15:39;100309.28;;;5.57;68.20
29825;BME280;16713;52.916;12.834;2023-12-28T03:18:05;100310.97;;;5.61;69.45
29825;BME280;16713;52.916;12.834;2023-12-28T03:20:32;100301.41;;;5.67;68.05
29825;BME280;16713;52.916;12.834;2023-12-28T03:22:58;100297.88;;;5.67;68.69
29825;BME280;16713;52.916;12.834;2023-12-28T03:25:25;100299.00;;;5.66;68.71
29825;BME280;16713;52.916;12.834;2023-12-28T03:27:51;100299.25;;;5.73;67.17
29825;BME280;16713;52.916;12.834;2023-12-28T03:30:18;100296.50;;;5.73;68.25
29825;BME280;16713;52.916;12.834;2023-12-28T03:32:44;100285.66;;;5.76;68.38
29825;BME280;16713;52.916;12.834;2023-12-28T03:35:11;100273.88;;;5.72;68.23
29825;BME280;16713;52.916;12.834;2023-12-28T03:37:37;100285.00;;;5.79;67.06
29825;BME280;16713;52.916;12.834;2023-12-28T03:40:04;100296.16;;;5.74;66.95
29825;BME280;16713;52.916;12.834;2023-12-28T03:42:32;100312.03;;;5.84;66.78
29825;BME280;16713;52.916;12.834;2023-12-28T03:44:59;100315.13;;;5.83;68.05
29825;BME280;16713;52.916;12.834;2023-12-28T03:47:25;100322.28;;;5.88;66.90
29825;BME280;16713;52.916;12.834;2023-12-28T03:49:52;100327.47;;;5.93;66.54
29825;BME280;16713;52.916;12.834;2023-12-28T03:52:19;100313.56;;;5.94;66.45
29825;BME280;16713;52.916;12.834;2023-12-28T03:54:45;100315.94;;;5.96;68.02
29825;BME280;16713;52.916;12.834;2023-12-28T03:57:12;100324.91;;;5.96;67.22
29825;BME280;16713;52.916;12.834;2023-12-28T03:59:39;100323.44;;;5.99;67.64
29825;BME280;16713;52.916;12.834;2023-12-28T04:02:05;100321.81;;;5.98;67.81
29825;BME280;16713;52.916;12.834;2023-12-28T04:04:32;100312.50;;;5.99;66.61
29825;BME280;16713;52.916;12.834;2023-12-28T04:06:58;100316.47;;;6.01;68.36
29825;BME280;16713;52.916;12.834;2023-12-28T04:09:25;100322.72;;;6.02;66.65
29825;BME280;16713;52.916;12.834;2023-12-28T04:11:51;100316.47;;;6.01;67.08
29825;BME280;16713;52.916;12.834;2023-12-28T04:14:18;100329.53;;;6.08;67.57
29825;BME280;16713;52.916;12.834;2023-12-28T04:16:45;100331.56;;;6.11;68.07
29825;BME280;16713;52.916;12.834;2023-12-28T04:19:11;100337.84;;;6.11;67.33
29825;BME280;16713;52.916;12.834;2023-12-28T04:21:38;100342.25;;;6.16;68.44
29825;BME280;16713;52.916;12.834;2023-12-28T04:24:05;100348.16;;;6.18;67.14
29825;BME280;16713;52.916;12.834;2023-12-28T04:26:31;100343.50;;;6.18;68.75
29825;BME280;16713;52.916;12.834;2023-12-28T04:29:00;100338.03;;;6.18;68.51
29825;BME280;16713;52.916;12.834;2023-12-28T04:31:26;100345.53;;;6.21;68.23
29825;BME280;16713;52.916;12.834;2023-12-28T04:33:53;100332.66;;;6.22;67.45
29825;BME280;16713;52.916;12.834;2023-12-28T04:36:19;100328.81;;;6.23;67.15
29825;BME280;16713;52.916;12.834;2023-12-28T04:38:46;100328.00;;;6.22;68.21
29825;BME280;16713;52.916;12.834;2023-12-28T04:41:12;100323.25;;;6.19;67.70
29825;BME280;16713;52.916;12.834;2023-12-28T04:43:39;100326.19;;;6.26;67.30
29825;BME280;16713;52.916;12.834;2023-12-28T04:46:05;100339.72;;;6.23;66.42
29825;BME280;16713;52.916;12.834;2023-12-28T04:48:32;100332.66;;;6.22;68.30
29825;BME280;16713;52.916;12.834;2023-12-28T04:51:02;100339.63;;;6.19;67.57
29825;BME280;16713;52.916;12.834;2023-12-28T04:53:28;100348.28;;;6.21;68.49
29825;BME280;16713;52.916;12.834;2023-12-28T04:55:55;100346.78;;;6.24;66.87
29825;BME280;16713;52.916;12.834;2023-12-28T04:58:21;100358.84;;;6.23;68.12
29825;BME280;16713;52.916;12.834;2023-12-28T05:00:48;100371.34;;;6.24;68.17
29825;BME280;16713;52.916;12.834;2023-12-28T05:03:14;100359.97;;;6.22;66.58
29825;BME280;16713;52.916;12.834;2023-12-28T05:05:41;100358.41;;;6.21;67.67
29825;BME280;16713;52.916;12.834;2023-12-28T05:08:07;100354.63;;;6.25;68.57
29825;BME280;16713;52.916;12.834;2023-12-28T05:10:34;100358.84;;;6.23;67.47
29825;BME280;16713;52.916;12.834;2023-12-28T05:13:00;100362.28;;;6.20;68.27
29825;BME280;16713;52.916;12.834;2023-12-28T05:15:28;100365.44;;;6.22;67.51
29825;BME280;16713;52.916;12.834;2023-12-28T05:17:55;100376.13;;;6.27;67.57
29825;BME280;16713;52.916;12.834;2023-12-28T05:20:23;100371.69;;;6.22;67.75
29825;BME280;16713;52.916;12.834;2023-12-28T05:22:49;100375.19;;;6.35;68.60
29825;BME280;16713;52.916;12.834;2023-12-28T05:25:16;100376.09;;;6.39;67.85
29825;BME280;16713;52.916;12.834;2023-12-28T05:27:42;100383.84;;;6.37;67.88
29825;BME280;16713;52.916;12.834;2023-12-28T05:30:09;100386.47;;;6.33;66.89
29825;BME280;16713;52.916;12.834;2023-12-28T05:32:37;100387.16;;;6.30;68.19
29825;BME280;16713;52.916;12.834;2023-12-28T05:35:04;100387.84;;;6.27;67.22
29825;BME280;16713;52.916;12.834;2023-12-28T05:37:30;100383.44;;;6.23;67.47
29825;BME280;16713;52.916;12.834;2023-12-28T05:39:57;100392.75;;;6.22;68.95
29825;BME280;16713;52.916;12.834;2023-12-28T05:42:24;100390.38;;;6.20;69.96
29825;BME280;16713;52.916;12.834;2023-12-28T05:44:50;100395.47;;;6.22;68.86
29825;BME280;16713;52.916;12.834;2023-12-28T05:47:17;100394.72;;;6.21;68.18
29825;BME280;16713;52.916;12.834;2023-12-28T05:49:43;100395.06;;;6.20;70.31
29825;BME280;16713;52.916;12.834;2023-12-28T05:52:10;100390.47;;;6.24;68.68
29825;BME280;16713;52.916;12.834;2023-12-28T05:54:36;100401.50;;;6.27;69.00
29825;BME280;16713;52.916;12.834;2023-12-28T05:57:03;100402.31;;;6.28;69.26
29825;BME280;16713;52.916;12.834;2023-12-28T05:59:29;100412.19;;;6.32;68.74
29825;BME280;16713;52.916;12.834;2023-12-28T06:01:56;100404.78;;;6.33;69.02
29825;BME280;16713;52.916;12.834;2023-12-28T06:04:22;100417.31;;;6.34;69.72
29825;BME280;16713;52.916;12.834;2023-12-28T06:06:49;100396.16;;;6.31;69.90
29825;BME280;16713;52.916;12.834;2023-12-28T06:09:15;100402.50;;;6.35;69.34
29825;BME280;16713;52.916;12.834;2023-12-28T06:11:42;100416.06;;;6.31;70.31
29825;BME280;16713;52.916;12.834;2023-12-28T06:14:08;100421.53;;;6.31;69.28
29825;BME280;16713;52.916;12.834;2023-12-28T06:16:35;100418.13;;;6.34;69.10
29825;BME280;16713;52.916;12.834;2023-12-28T06:19:02;100417.31;;;6.34;70.33
29825;BME280;16713;52.916;12.834;2023-12-28T06:21:28;100415.94;;;6.40;71.02
29825;BME280;16713;52.916;12.834;2023-12-28T06:23:56;100415.94;;;6.40;70.61
29825;BME280;16713;52.916;12.834;2023-12-28T06:26:23;100420.94;;;6.38;69.39
29825;BME280;16713;52.916;12.834;2023-12-28T06:28:49;100418.19;;;6.38;70.92
29825;BME280;16713;52.916;12.834;2023-12-28T06:31:16;100421.28;;;6.36;70.19
29825;BME280;16713;52.916;12.834;2023-12-28T06:33:43;100417.31;;;6.34;69.62
29825;BME280;16713;52.916;12.834;2023-12-28T06:36:11;100418.34;;;6.29;70.86
29825;BME280;16713;52.916;12.834;2023-12-28T06:38:38;100420.63;;;6.27;69.38
29825;BME280;16713;52.916;12.834;2023-12-28T06:41:12;100415.75;;;6.21;70.29
29825;BME280;16713;52.916;12.834;2023-12-28T06:43:38;100416.00;;;6.16;70.86
29825;BME280;16713;52.916;12.834;2023-12-28T06:46:05;100412.72;;;6.10;70.14
29825;BME280;16713;52.916;12.834;2023-12-28T06:48:31;100411.69;;;6.03;71.21
29825;BME280;16713;52.916;12.834;2023-12-28T06:50:58;100415.09;;;6.00;71.11
29825;BME280;16713;52.916;12.834;2023-12-28T06:53:24;100406.22;;;5.91;71.29
29825;BME280;16713;52.916;12.834;2023-12-28T06:55:50;100408.84;;;5.87;69.97
29825;BME280;16713;52.916;12.834;2023-12-28T06:58:17;100416.22;;;5.86;70.06
29825;BME280;16713;52.916;12.834;2023-12-28T07:00:44;100410.53;;;5.92;71.02
29825;BME280;16713;52.916;12.834;2023-12-28T07:03:11;100412.94;;;5.93;70.79
29825;BME280;16713;52.916;12.834;2023-12-28T07:05:37;100409.88;;;5.95;71.26
29825;BME280;16713;52.916;12.834;2023-12-28T07:08:04;100412.59;;;5.95;71.98
29825;BME280;16713;52.916;12.834;2023-12-28T07:10:30;100405.75;;;6.01;70.85
29825;BME280;16713;52.916;12.834;2023-12-28T07:12:57;100411.00;;;6.06;70.55
29825;BME280;16713;52.916;12.834;2023-12-28T07:15:23;100425.22;;;6.11;71.58
29825;BME280;16713;52.916;12.834;2023-12-28T07:17:51;100423.38;;;6.15;70.39
29825;BME280;16713;52.916;12.834;2023-12-28T07:20:18;100431.56;;;6.15;71.40
29825;BME280;16713;52.916;12.834;2023-12-28T07:22:44;100433.75;;;6.10;72.41
29825;BME280;16713;52.916;12.834;2023-12-28T07:25:11;100432.50;;;6.19;71.90
29825;BME280;16713;52.916;12.834;2023-12-28T07:27:37;100434.88;;;6.21;72.61
29825;BME280;16713;52.916;12.834;2023-12-28T07:30:04;100438.06;;;6.23;71.40
29825;BME280;16713;52.916;12.834;2023-12-28T07:32:31;100443.63;;;6.26;70.60
29825;BME280;16713;52.916;12.834;2023-12-28T07:34:57;100440.78;;;6.23;72.59
29825;BME280;16713;52.916;12.834;2023-12-28T07:37:25;100447.16;;;6.27;71.17
29825;BME280;16713;52.916;12.834;2023-12-28T07:39:52;100442.94;;;6.29;71.36
29825;BME280;16713;52.916;12.834;2023-12-28T07:42:19;100450.34;;;6.29;71.72
29825;BME280;16713;52.916;12.834;2023-12-28T07:44:46;100450.00;;;6.30;72.00
29825;BME280;16713;52.916;12.834;2023-12-28T07:47:12;100452.06;;;6.21;71.33
29825;BME280;16713;52.916;12.834;2023-12-28T07:49:39;100443.28;;;6.28;72.06
29825;BME280;16713;52.916;12.834;2023-12-28T07:52:07;100455.78;;;6.29;70.62
29825;BME280;16713;52.916;12.834;2023-12-28T07:54:33;100458.06;;;6.27;71.23
29825;BME280;16713;52.916;12.834;2023-12-28T07:57:00;100455.56;;;6.34;71.64
29825;BME280;16713;52.916;12.834;2023-12-28T07:59:26;100454.41;;;6.35;72.12
29825;BME280;16713;52.916;12.834;2023-12-28T08:01:53;100465.09;;;6.40;72.34
29825;BME280;16713;52.916;12.834;2023-12-28T08:04:19;100463.53;;;6.39;71.81
29825;BME280;16713;52.916;12.834;2023-12-28T08:06:46;100473.06;;;6.33;71.23
29825;BME280;16713;52.916;12.834;2023-12-28T08:09:12;100474.34;;;6.35;71.14
29825;BME280;16713;52.916;12.834;2023-12-28T08:11:39;100462.84;;;6.42;70.71
29825;BME280;16713;52.916;12.834;2023-12-28T08:14:06;100466.69;;;6.41;71.50
29825;BME280;16713;52.916;12.834;2023-12-28T08:16:32;100459.41;;;6.45;72.19
29825;BME280;16713;52.916;12.834;2023-12-28T08:18:59;100466.91;;;6.48;70.48
29825;BME280;16713;52.916;12.834;2023-12-28T08:21:25;100468.06;;;6.47;70.61
29825;BME280;16713;52.916;12.834;2023-12-28T08:23:52;100469.28;;;6.49;70.36
29825;BME280;16713;52.916;12.834;2023-12-28T08:26:18;100473.94;;;6.49;70.41
29825;BME280;16713;52.916;12.834;2023-12-28T08:28:45;100479.00;;;6.47;70.59
29825;BME280;16713;52.916;12.834;2023-12-28T08:31:12;100479.22;;;6.42;71.67
29825;BME280;16713;52.916;12.834;2023-12-28T08:33:40;100479.91;;;6.39;71.12
29825;BME280;16713;52.916;12.834;2023-12-28T08:36:07;100483.69;;;6.34;72.71
29825;BME280;16713;52.916;12.834;2023-12-28T08:38:34;100477.41;;;6.34;72.06
29825;BME280;16713;52.916;12.834;2023-12-28T08:41:00;100482.78;;;6.30;72.60
29825;BME280;16713;52.916;12.834;2023-12-28T08:43:30;100481.97;;;6.30;72.31
29825;BME280;16713;52.916;12.834;2023-12-28T08:45:56;100495.28;;;6.31;72.06
29825;BME280;16713;52.916;12.834;2023-12-28T08:48:23;100489.47;;;6.33;71.25
29825;BME280;16713;52.916;12.834;2023-12-28T08:50:50;100489.16;;;6.34;71.27
29825;BME280;16713;52.916;12.834;2023-12-28T08:53:17;100495.41;;;6.35;71.67
29825;BME280;16713;52.916;12.834;2023-12-28T08:55:43;100480.97;;;6.34;73.01
29825;BME280;16713;52.916;12.834;2023-12-28T08:58:10;100489.25;;;6.38;72.77
29825;BME280;16713;52.916;12.834;2023-12-28T09:00:36;100480.63;;;6.36;71.78
29825;BME280;16713;52.916;12.834;2023-12-28T09:03:03;100481.50;;;6.40;72.39
29825;BME280;16713;52.916;12.834;2023-12-28T09:05:30;100485.94;;;6.44;73.08
29825;BME280;16713;52.916;12.834;2023-12-28T09:07:56;100481.25;;;6.45;70.99
29825;BME280;16713;52.916;12.834;2023-12-28T09:10:23;100481.72;;;6.47;71.25
29825;BME280;16713;52.916;12.834;2023-12-28T09:12:50;100477.84;;;6.48;71.99
29825;BME280;16713;52.916;12.834;2023-12-28T09:15:17;100486.03;;;6.48;71.68
29825;BME280;16713;52.916;12.834;2023-12-28T09:17:43;100490.03;;;6.50;71.15
29825;BME280;16713;52.916;12.834;2023-12-28T09:20:11;100480.56;;;6.48;72.43
29825;BME280;16713;52.916;12.834;2023-12-28T09:22:38;100479.41;;;6.49;71.93
29825;BME280;16713;52.916;12.834;2023-12-28T09:25:04;100475.44;;;6.46;72.33
29825;BME280;16713;52.916;12.834;2023-12-28T09:27:31;100480.47;;;6.44;72.55
29825;BME280;16713;52.916;12.834;2023-12-28T09:29:58;100482.16;;;6.49;71.45
29825;BME280;16713;52.916;12.834;2023-12-28T09:32:24;100478.19;;;6.46;71.14
29825;BME280;16713;52.916;12.834;2023-12-28T09:34:51;100474.66;;;6.46;70.92
29825;BME280;16713;52.916;12.834;2023-12-28T09:37:17;100467.38;;;6.50;71.99
29825;BME280;16713;52.916;12.834;2023-12-28T09:39:44;100469.75;;;6.51;71.57
29825;BME280;16713;52.916;12.834;2023-12-28T09:42:29;100475.56;;;6.50;71.71
29825;BME280;16713;52.916;12.834;2023-12-28T09:44:57;100474.16;;;6.56;71.00
29825;BME280;16713;52.916;12.834;2023-12-28T09:47:25;100477.13;;;6.63;72.18
29825;BME280;16713;52.916;12.834;2023-12-28T09:49:51;100465.38;;;6.62;70.94
29825;BME280;16713;52.916;12.834;2023-12-28T09:52:18;100482.34;;;6.68;70.80
29825;BME280;16713;52.916;12.834;2023-12-28T09:54:44;100477.25;;;6.66;70.51
29825;BME280;16713;52.916;12.834;2023-12-28T09:57:11;100470.16;;;6.65;71.16
29825;BME280;16713;52.916;12.834;2023-12-28T09:59:39;100471.50;;;6.71;71.64
29825;BME280;16713;52.916;12.834;2023-12-28T10:02:06;100463.56;;;6.66;70.12
29825;BME280;16713;52.916;12.834;2023-12-28T10:04:33;100468.16;;;6.78;69.82
29825;BME280;16713;52.916;12.834;2023-12-28T10:07:00;100471.38;;;6.80;69.58
29825;BME280;16713;52.916;12.834;2023-12-28T10:09:26;100463.97;;;6.80;70.94
29825;BME280;16713;52.916;12.834;2023-12-28T10:11:54;100449.25;;;6.85;70.38
29825;BME280;16713;52.916;12.834;2023-12-28T10:14:20;100458.69;;;6.87;69.68
29825;BME280;16713;52.916;12.834;2023-12-28T10:16:47;100475.88;;;6.88;71.35
29825;BME280;16713;52.916;12.834;2023-12-28T10:19:14;100469.38;;;6.92;70.67
29825;BME280;16713;52.916;12.834;2023-12-28T10:21:41;100459.59;;;6.91;70.54
29825;BME280;16713;52.916;12.834;2023-12-28T10:24:10;100462.44;;;6.95;71.20
29825;BME280;16713;52.916;12.834;2023-12-28T10:26:36;100470.03;;;7.01;69.28
29825;BME280;16713;52.916;12.834;2023-12-28T10:29:03;100470.91;;;7.05;69.51
29825;BME280;16713;52.916;12.834;2023-12-28T10:31:30;100483.53;;;7.10;70.69
29825;BME280;16713;52.916;12.834;2023-12-28T10:34:00;100474.44;;;7.06;70.28
29825;BME280;16713;52.916;12.834;2023-12-28T10:36:31;100470.75;;;7.14;69.62
29825;BME280;16713;52.916;12.834;2023-12-28T10:39:00;100473.19;;;7.03;69.98
29825;BME280;16713;52.916;12.834;2023-12-28T10:41:28;100476.13;;;7.10;70.04
29825;BME280;16713;52.916;12.834;2023-12-28T10:44:02;100478.81;;;7.22;70.47
29825;BME280;16713;52.916;12.834;2023-12-28T10:46:41;100476.72;;;7.32;70.08
29825;BME280;16713;52.916;12.834;2023-12-28T10:49:12;100476.72;;;7.32;69.10
29825;BME280;16713;52.916;12.834;2023-12-28T10:51:43;100491.75;;;7.38;68.25
29825;BME280;16713;52.916;12.834;2023-12-28T10:54:30;100479.75;;;7.42;68.29
29825;BME280;16713;52.916;12.834;2023-12-28T10:57:09;100483.81;;;7.48;69.29
29825;BME280;16713;52.916;12.834;2023-12-28T11:02:11;100465.78;;;7.47;68.07
29825;BME280;16713;52.916;12.834;2023-12-28T11:04:41;100473.75;;;7.52;67.84
29825;BME280;16713;52.916;12.834;2023-12-28T11:07:09;100465.28;;;7.57;67.62
29825;BME280;16713;52.916;12.834;2023-12-28T11:09:38;100456.72;;;7.59;69.27
29825;BME280;16713;52.916;12.834;2023-12-28T11:12:07;100447.88;;;7.65;67.20
29825;BME280;16713;52.916;12.834;2023-12-28T11:14:34;100456.28;;;7.72;67.56
29825;BME280;16713;52.916;12.834;2023-12-28T11:17:01;100460.59;;;7.73;67.64
29825;BME280;16713;52.916;12.834;2023-12-28T11:19:29;100453.19;;;7.74;68.68
29825;BME280;16713;52.916;12.834;2023-12-28T11:21:56;100442.28;;;7.77;68.07
29825;BME280;16713;52.916;12.834;2023-12-28T11:24:27;100434.78;;;7.74;67.64
29825;BME280;16713;52.916;12.834;2023-12-28T11:26:55;100435.78;;;7.82;68.16
29825;BME280;16713;52.916;12.834;2023-12-28T11:29:22;100424.28;;;7.76;67.68
29825;BME280;16713;52.916;12.834;2023-12-28T11:31:54;100414.59;;;7.79;66.88
29825;BME280;16713;52.916;12.834;2023-12-28T11:34:32;100407.50;;;7.78;67.04
29825;BME280;16713;52.916;12.834;2023-12-28T11:37:04;100401.22;;;7.77;67.91
29825;BME280;16713;52.916;12.834;2023-12-28T11:39:34;100391.50;;;7.80;67.62
29825;BME280;16713;52.916;12.834;2023-12-28T11:42:08;100395.56;;;7.86;67.06
29825;BME280;16713;52.916;12.834;2023-12-28T11:44:42;100403.41;;;7.87;66.87
29825;BME280;16713;52.916;12.834;2023-12-28T11:47:16;100401.97;;;7.93;67.17
29825;BME280;16713;52.916;12.834;2023-12-28T11:49:48;100404.41;;;7.95;66.15
29825;BME280;16713;52.916;12.834;2023-12-28T11:52:28;100404.81;;;7.97;66.29
29825;BME280;16713;52.916;12.834;2023-12-28T11:54:56;100422.56;;;8.03;65.93
29825;BME280;16713;52.916;12.834;2023-12-28T11:57:22;100415.13;;;8.03;66.60
29825;BME280;16713;52.916;12.834;2023-12-28T11:59:56;100403.47;;;8.06;65.45
29825;BME280;16713;52.916;12.834;2023-12-28T12:02:23;100398.22;;;8.17;65.94
29825;BME280;16713;52.916;12.834;2023-12-28T12:04:51;100399.34;;;8.16;65.37
29825;BME280;16713;52.916;12.834;2023-12-28T12:07:21;100395.13;;;8.18;64.98
29825;BME280;16713;52.916;12.834;2023-12-28T12:09:47;100403.19;;;8.11;65.23
29825;BME280;16713;52.916;12.834;2023-12-28T12:12:16;100406.44;;;8.17;65.31
29825;BME280;16713;52.916;12.834;2023-12-28T12:14:42;100402.63;;;8.21;65.46
29825;BME280;16713;52.916;12.834;2023-12-28T12:17:09;100411.69;;;8.25;65.44
29825;BME280;16713;52.916;12.834;2023-12-28T12:19:35;100413.66;;;8.25;65.36
29825;BME280;16713;52.916;12.834;2023-12-28T12:22:02;100412.44;;;8.22;64.24
29825;BME280;16713;52.916;12.834;2023-12-28T12:24:31;100409.84;;;8.29;65.61
29825;BME280;16713;52.916;12.834;2023-12-28T12:26:58;100404.28;;;8.26;64.63
29825;BME280;16713;52.916;12.834;2023-12-28T12:29:29;100405.09;;;8.26;65.33
29825;BME280;16713;52.916;12.834;2023-12-28T12:31:56;100407.09;;;8.29;65.15
29825;BME280;16713;52.916;12.834;2023-12-28T12:34:23;100415.69;;;8.28;66.01
29825;BME280;16713;52.916;12.834;2023-12-28T12:36:50;100405.22;;;8.33;64.63
29825;BME280;16713;52.916;12.834;2023-12-28T12:39:23;100417.00;;;8.34;64.50
29825;BME280;16713;52.916;12.834;2023-12-28T12:41:50;100409.94;;;8.33;65.62
29825;BME280;16713;52.916;12.834;2023-12-28T12:44:19;100418.22;;;8.36;65.25
29825;BME280;16713;52.916;12.834;2023-12-28T12:46:46;100408.94;;;8.41;65.10
29825;BME280;16713;52.916;12.834;2023-12-28T12:49:12;100403.38;;;8.37;64.49
29825;BME280;16713;52.916;12.834;2023-12-28T12:51:39;100408.69;;;8.49;64.85
29825;BME280;16713;52.916;12.834;2023-12-28T12:54:07;100406.38;;;8.51;64.56
29825;BME280;16713;52.916;12.834;2023-12-28T12:56:35;100416.16;;;8.49;64.54